Time;durP1;ratioP1;P1;durP2;ratioP2;P2;SDS_P1;SDS_P2;PMS_P1;PMS_P2;Temp;Humidity;BMP_temperature;BMP_pressure;BME280_temperature;BME280_humidity;BME280_pressure;Samples;Min_cycle;Max_cycle;Signal;HPM_P1;HPM_P2
2022/08/17 00:00:27;;;;;;;3.88;3.58;;;;;;;20.49;65.10;97959.69;4104262;28;20210;-54
2022/08/17 00:03:24;;;;;;;4.07;3.78;;;;;;;20.48;65.02;97960.84;4117123;28;20261;-53
2022/08/17 00:05:28;;;;;;;3.40;3.10;;;;;;;20.49;65.13;97963.28;4100588;28;20714;-53
2022/08/17 00:07:30;;;;;;;4.47;4.05;;;;;;;20.47;65.22;97964.75;4107722;28;20232;-52
2022/08/17 00:09:32;;;;;;;3.80;3.50;;;;;;;20.44;65.18;97962.66;4085758;28;20199;-52
2022/08/17 00:11:37;;;;;;;4.45;4.15;;;;;;;20.42;65.29;97970.47;4102275;28;20781;-53
2022/08/17 00:13:43;;;;;;;3.63;3.42;;;;;;;20.39;65.22;97969.16;4089518;28;20235;-54
2022/08/17 00:15:45;;;;;;;4.10;3.80;;;;;;;20.38;65.20;97967.53;4103394;28;20272;-53
2022/08/17 00:17:49;;;;;;;4.43;4.13;;;;;;;20.33;65.10;97964.09;4106548;28;20684;-53
2022/08/17 00:19:51;;;;;;;4.15;3.85;;;;;;;20.31;65.54;97961.66;4118336;28;20212;-52
2022/08/17 00:21:59;;;;;;;4.82;4.43;;;;;;;20.26;65.84;97963.78;4102511;28;20580;-53
2022/08/17 00:24:21;;;;;;;4.35;4.05;;;;;;;20.23;65.92;97964.41;4117903;28;20209;-53
2022/08/17 00:26:23;;;;;;;3.78;3.53;;;;;;;20.18;66.15;97964.59;4103160;28;20233;-53
2022/08/17 00:28:46;;;;;;;4.47;4.07;;;;;;;20.04;66.79;97955.56;4103125;28;20203;-54
2022/08/17 00:30:49;;;;;;;4.75;4.25;;;;;;;19.98;66.96;97957.66;4087264;28;20219;-53
2022/08/17 00:32:54;;;;;;;4.47;4.18;;;;;;;19.95;66.92;97951.94;4103900;28;20202;-53
2022/08/17 00:35:20;;;;;;;4.57;4.28;;;;;;;19.97;66.77;97938.56;4099747;28;20243;-54
2022/08/17 00:37:22;;;;;;;4.47;4.18;;;;;;;19.93;66.95;97946.72;4099750;28;20254;-55
2022/08/17 00:39:24;;;;;;;4.43;4.18;;;;;;;19.93;67.01;97940.34;4100547;28;20208;-53
2022/08/17 00:41:26;;;;;;;4.72;4.28;;;;;;;19.92;66.88;97942.28;4105084;28;20309;-53
2022/08/17 00:43:41;;;;;;;5.15;4.85;;;;;;;19.89;67.32;97937.38;4110760;28;20226;-53
2022/08/17 00:45:43;;;;;;;5.53;5.03;;;;;;;19.87;67.55;97947.19;4106426;28;20214;-54
2022/08/17 00:47:45;;;;;;;4.75;4.45;;;;;;;19.82;67.78;97937.03;4102336;28;20207;-53
2022/08/17 00:49:47;;;;;;;5.45;5.13;;;;;;;19.82;67.91;97939.00;4111186;28;20253;-54
2022/08/17 00:51:56;;;;;;;5.18;4.78;;;;;;;19.83;68.06;97937.84;4102363;28;20262;-52
2022/08/17 00:54:09;;;;;;;5.55;5.15;;;;;;;19.78;68.41;97940.81;4107916;28;22646;-52
2022/08/17 00:56:25;;;;;;;5.90;4.70;;;;;;;19.74;68.41;97940.63;4110601;28;20234;-52
2022/08/17 00:58:27;;;;;;;5.30;4.97;;;;;;;19.70;68.47;97944.34;4100994;28;20371;-54
2022/08/17 01:00:42;;;;;;;5.72;5.32;;;;;;;19.64;68.60;97942.88;4085497;28;20210;-55
2022/08/17 01:02:45;;;;;;;5.13;4.63;;;;;;;19.63;68.49;97941.22;4087832;28;20664;-53
2022/08/17 01:04:50;;;;;;;6.20;5.80;;;;;;;19.60;68.85;97941.88;4108446;28;20692;-54
2022/08/17 01:06:52;;;;;;;5.93;4.95;;;;;;;19.62;68.85;97942.38;4104022;28;20237;-53
2022/08/17 01:08:55;;;;;;;5.45;5.07;;;;;;;19.66;68.43;97937.81;4106087;28;20214;-53
2022/08/17 01:11:00;;;;;;;5.07;4.78;;;;;;;19.65;68.93;97930.63;4103855;28;20221;-53
2022/08/17 01:13:03;;;;;;;6.03;5.63;;;;;;;19.68;68.47;97932.75;4105978;28;20199;-54
2022/08/17 01:15:05;;;;;;;5.60;5.22;;;;;;;19.72;68.60;97930.97;4119524;28;20203;-53
2022/08/17 01:17:07;;;;;;;4.97;4.57;;;;;;;19.71;68.63;97941.25;4103200;28;20234;-53
2022/08/17 01:19:24;;;;;;;5.20;4.90;;;;;;;19.68;68.58;97930.81;4110058;28;20211;-54
2022/08/17 01:21:33;;;;;;;5.57;5.13;;;;;;;19.66;68.77;97929.50;4120337;28;20206;-55
2022/08/17 01:23:35;;;;;;;5.85;5.50;;;;;;;19.66;68.75;97937.81;4105848;28;20219;-53
2022/08/17 01:25:37;;;;;;;5.18;4.85;;;;;;;19.63;69.32;97927.34;4120708;28;20233;-54
2022/08/17 01:27:40;;;;;;;6.05;5.65;;;;;;;19.59;69.23;97932.72;4110205;28;20199;-53
2022/08/17 01:29:48;;;;;;;5.43;5.05;;;;;;;19.57;69.01;97942.53;4122486;28;20910;-54
2022/08/17 01:31:56;;;;;;;4.43;4.22;;;;;;;19.60;69.22;97939.09;4120036;28;20202;-54
2022/08/17 01:34:01;;;;;;;4.95;4.65;;;;;;;19.61;68.49;97935.19;4108579;28;21511;-53
2022/08/17 01:36:05;;;;;;;5.82;4.82;;;;;;;19.63;68.71;97942.06;4102949;28;20327;-53
2022/08/17 01:38:08;;;;;;;5.28;4.88;;;;;;;19.65;68.36;97938.97;4105019;28;20266;-54
2022/08/17 01:40:20;;;;;;;4.78;4.47;;;;;;;19.71;68.40;97938.47;4106206;28;20278;-52
2022/08/17 01:42:36;;;;;;;5.47;5.07;;;;;;;19.75;68.38;97935.88;4108144;28;20231;-54
2022/08/17 01:44:38;;;;;;;5.82;5.43;;;;;;;19.73;68.35;97938.16;4102884;28;20669;-54
2022/08/17 01:46:39;;;;;;;4.60;4.30;;;;;;;19.73;68.20;97940.94;4106987;28;20226;-54
2022/08/17 01:48:42;;;;;;;6.28;5.97;;;;;;;19.69;68.40;97942.72;4104582;28;20211;-53
2022/08/17 01:50:46;;;;;;;5.05;4.65;;;;;;;19.63;68.89;97955.94;4103610;28;20218;-55
2022/08/17 01:52:49;;;;;;;5.45;4.97;;;;;;;19.63;68.85;97955.09;4109011;28;20253;-53
2022/08/17 01:54:52;;;;;;;6.07;5.68;;;;;;;19.60;69.23;97950.22;4121665;28;20219;-54
2022/08/17 01:56:54;;;;;;;5.20;4.55;;;;;;;19.57;69.34;97950.88;4105852;28;20235;-54
2022/08/17 01:58:56;;;;;;;5.35;5.03;;;;;;;19.53;69.36;97950.69;4119485;28;20202;-53
2022/08/17 02:00:57;;;;;;;6.28;5.75;;;;;;;19.53;69.50;97942.38;4105498;28;20242;-53
2022/08/17 02:03:02;;;;;;;5.25;4.95;;;;;;;19.53;69.16;97944.31;4103366;28;20238;-54
2022/08/17 02:05:05;;;;;;;5.07;4.72;;;;;;;19.56;68.99;97949.22;4106787;28;20261;-53
2022/08/17 02:07:06;;;;;;;4.90;4.60;;;;;;;19.57;68.70;97935.00;4122679;28;20392;-53
2022/08/17 02:09:09;;;;;;;4.22;4.03;;;;;;;19.55;68.79;97947.56;4112240;28;20410;-53
2022/08/17 02:11:19;;;;;;;5.50;5.20;;;;;;;19.55;68.57;97942.03;4106040;28;20257;-53
2022/08/17 02:13:20;;;;;;;5.43;4.93;;;;;;;19.55;68.68;97948.41;4121512;28;20198;-53
2022/08/17 02:15:22;;;;;;;5.05;4.70;;;;;;;19.49;69.49;97954.41;4109480;28;20222;-53
2022/08/17 02:17:24;;;;;;;4.63;4.32;;;;;;;19.44;69.60;97949.81;4121222;28;20226;-52
2022/08/17 02:19:25;;;;;;;5.25;4.88;;;;;;;19.46;69.19;97949.50;4120254;28;20210;-52
2022/08/17 02:21:27;;;;;;;6.38;5.93;;;;;;;19.46;68.96;97949.50;4107482;28;20260;-52
2022/08/17 02:23:31;;;;;;;4.90;4.50;;;;;;;19.49;68.87;97943.31;4104605;28;20257;-53
2022/08/17 02:25:35;;;;;;;7.60;5.25;;;;;;;19.43;69.08;97947.38;4105644;28;20697;-53
2022/08/17 02:27:37;;;;;;;5.45;5.15;;;;;;;19.38;69.35;97942.78;4110952;28;20735;-54
2022/08/17 02:29:39;;;;;;;5.95;5.55;;;;;;;19.35;69.58;97948.16;4107381;28;20219;-53
2022/08/17 02:31:42;;;;;;;5.43;5.13;;;;;;;19.31;69.67;97941.63;4104833;28;20211;-53
2022/08/17 02:33:44;;;;;;;5.15;4.75;;;;;;;19.22;70.12;97943.53;4108999;28;20202;-53
2022/08/17 02:36:01;;;;;;;5.70;5.38;;;;;;;19.21;69.70;97941.91;4119810;28;20230;-53
2022/08/17 02:38:04;;;;;;;4.85;4.45;;;;;;;19.21;70.28;97937.19;4104398;28;20211;-53
2022/08/17 02:40:09;;;;;;;5.28;4.93;;;;;;;19.17;70.48;97940.88;4107122;28;20203;-53
2022/08/17 02:42:12;;;;;;;5.00;4.60;;;;;;;19.15;69.85;97932.88;4109667;28;20211;-53
2022/08/17 02:44:14;;;;;;;11.90;5.50;;;;;;;19.14;70.34;97930.41;4108442;28;20215;-53
2022/08/17 02:46:36;;;;;;;5.18;4.78;;;;;;;19.18;69.90;97934.19;4107552;28;20707;-54
2022/08/17 02:48:38;;;;;;;5.28;4.78;;;;;;;19.19;70.26;97938.59;4109756;28;20669;-54
2022/08/17 02:50:40;;;;;;;5.70;5.40;;;;;;;19.14;70.33;97928.47;4107743;28;20199;-53
2022/08/17 02:52:44;;;;;;;5.20;4.90;;;;;;;19.13;70.38;97931.53;4121527;28;20648;-53
2022/08/17 02:54:57;;;;;;;5.97;5.53;;;;;;;19.09;70.64;97938.84;4109842;28;20246;-54
2022/08/17 02:56:59;;;;;;;6.47;6.00;;;;;;;19.10;70.81;97929.41;4115199;28;20223;-54
2022/08/17 02:59:01;;;;;;;6.15;5.75;;;;;;;19.05;71.01;97932.34;4106932;28;20211;-54
2022/08/17 03:01:04;;;;;;;6.03;5.63;;;;;;;19.03;71.53;97938.19;4106888;28;20298;-53
2022/08/17 03:03:12;;;;;;;6.40;6.00;;;;;;;19.02;71.39;97944.88;4106689;28;20235;-53
2022/08/17 03:05:16;;;;;;;5.95;5.55;;;;;;;19.08;71.01;97953.88;4111457;28;20213;-53
2022/08/17 03:07:19;;;;;;;5.65;5.25;;;;;;;19.11;70.90;97948.50;4108307;28;20242;-53
2022/08/17 03:09:20;;;;;;;6.63;6.03;;;;;;;19.20;70.85;97962.44;4123584;28;20684;-54
2022/08/17 03:11:22;;;;;;;5.25;4.95;;;;;;;19.20;70.79;97970.78;4114739;28;20237;-53
2022/08/17 03:13:24;;;;;;;5.78;5.18;;;;;;;19.31;70.79;97997.13;4098090;28;20207;-53
2022/08/17 03:15:29;;;;;;;6.00;5.60;;;;;;;19.02;72.01;98007.84;4115087;28;20679;-54
2022/08/17 03:17:31;;;;;;;6.82;6.05;;;;;;;18.89;72.31;97987.38;4104955;28;20262;-53
2022/08/17 03:19:32;;;;;;;5.45;5.15;;;;;;;18.86;72.38;97984.41;4110230;28;20216;-53
2022/08/17 03:21:34;;;;;;;5.38;4.97;;;;;;;18.93;72.07;97995.88;4090116;28;20212;-54
2022/08/17 03:23:39;;;;;;;7.30;6.70;;;;;;;18.92;72.25;98002.56;4107549;28;20752;-53
2022/08/17 03:25:42;;;;;;;6.50;6.10;;;;;;;18.99;72.11;97994.63;4103174;28;20234;-53
2022/08/17 03:27:44;;;;;;;6.68;6.25;;;;;;;19.00;71.93;97990.69;4121402;28;20202;-53
2022/08/17 03:29:50;;;;;;;5.47;5.18;;;;;;;19.04;71.57;97992.53;4111089;28;20752;-53
2022/08/17 03:31:52;;;;;;;5.65;5.15;;;;;;;19.12;71.19;97994.50;4107480;28;20266;-53
2022/08/17 03:33:55;;;;;;;6.70;6.13;;;;;;;19.21;70.85;98002.94;4115810;28;20249;-53
2022/08/17 03:35:57;;;;;;;5.80;5.43;;;;;;;19.20;70.90;97996.59;4110908;28;20712;-53
2022/08/17 03:37:59;;;;;;;6.20;5.72;;;;;;;19.24;70.81;98002.31;4106108;28;20253;-53
2022/08/17 03:40:03;;;;;;;6.03;5.55;;;;;;;19.24;71.26;97991.22;4123790;28;20202;-53
2022/08/17 03:42:13;;;;;;;5.93;5.53;;;;;;;19.19;71.23;97994.09;4109089;28;20238;-53
2022/08/17 03:44:33;;;;;;;5.82;5.32;;;;;;;19.22;70.95;97993.47;4118941;28;20218;-53
2022/08/17 03:56:41;;;;;;;6.30;5.15;;;;;;;19.30;70.31;97998.22;4104902;28;20285;-53
2022/08/17 03:58:43;;;;;;;4.90;4.60;;;;;;;19.28;70.45;98000.50;4103802;28;20800;-53
2022/08/17 04:00:45;;;;;;;5.00;4.70;;;;;;;19.26;70.30;97994.47;4106202;28;20207;-53
2022/08/17 04:02:47;;;;;;;5.07;4.78;;;;;;;19.24;70.46;97991.22;4102280;28;20211;-53
2022/08/17 04:04:49;;;;;;;6.18;5.78;;;;;;;19.22;70.46;97994.28;4104400;28;20263;-53
2022/08/17 04:06:52;;;;;;;6.05;5.45;;;;;;;19.21;70.68;97986.28;4102033;28;21295;-54
2022/08/17 04:08:53;;;;;;;5.75;5.35;;;;;;;19.13;71.12;97985.06;4102048;28;20206;-53
2022/08/17 04:10:56;;;;;;;6.50;6.10;;;;;;;19.15;71.01;97988.34;4102871;28;20214;-53
2022/08/17 04:12:57;;;;;;;5.32;4.97;;;;;;;19.14;71.18;97992.25;4117971;28;20240;-54
2022/08/17 04:14:59;;;;;;;6.93;6.53;;;;;;;18.79;72.70;97979.28;4110634;28;20636;-53
2022/08/17 04:17:01;;;;;;;7.53;6.85;;;;;;;18.66;73.20;97979.38;4106155;28;20226;-53
2022/08/17 04:19:03;;;;;;;6.10;5.70;;;;;;;18.64;73.24;97976.13;4104455;28;20665;-53
2022/08/17 04:21:08;;;;;;;6.18;5.78;;;;;;;18.64;73.16;97978.88;4103958;28;20207;-53
2022/08/17 04:23:12;;;;;;;6.93;6.43;;;;;;;18.69;73.21;97974.03;4119505;28;20265;-54
2022/08/17 04:25:16;;;;;;;6.65;6.13;;;;;;;18.79;72.68;97979.28;4104307;28;20862;-53
2022/08/17 04:27:18;;;;;;;6.40;5.85;;;;;;;18.81;73.03;97976.22;4102196;28;20596;-54
2022/08/17 04:29:20;;;;;;;6.05;5.65;;;;;;;18.90;72.39;97968.75;4105888;28;20218;-54
2022/08/17 04:31:22;;;;;;;5.75;5.25;;;;;;;18.98;72.26;97977.16;4108336;28;20211;-53
2022/08/17 04:33:26;;;;;;;6.97;6.38;;;;;;;18.98;72.66;97965.25;4111636;28;20203;-53
2022/08/17 04:35:30;;;;;;;7.28;5.13;;;;;;;19.06;72.42;97967.25;4104305;28;20221;-54
2022/08/17 04:37:32;;;;;;;6.88;6.38;;;;;;;19.08;72.37;97981.59;4106437;28;20406;-53
2022/08/17 04:39:34;;;;;;;6.05;5.65;;;;;;;19.08;72.07;97970.50;4104417;28;20204;-53
2022/08/17 04:43:57;;;;;;;6.10;5.80;;;;;;;19.07;72.46;97968.88;4107327;28;20398;-53
2022/08/17 04:46:05;;;;;;;7.35;6.53;;;;;;;19.16;72.33;97972.50;4103505;28;20241;-53
2022/08/17 04:48:06;;;;;;;6.03;5.53;;;;;;;19.15;72.02;97974.47;4103680;28;21031;-54
2022/08/17 04:50:08;;;;;;;7.38;6.68;;;;;;;19.14;72.16;97969.25;4105746;28;20214;-53
2022/08/17 04:52:13;;;;;;;6.38;5.97;;;;;;;19.13;72.35;97970.38;4105727;28;20219;-53
2022/08/17 04:54:35;;;;;;;6.43;5.97;;;;;;;19.12;72.39;97961.22;4108502;28;20203;-53
2022/08/17 04:56:37;;;;;;;6.35;5.85;;;;;;;19.14;72.35;97958.97;4107981;28;20222;-54
2022/08/17 04:58:39;;;;;;;7.13;6.72;;;;;;;18.97;73.46;97958.06;4107245;28;20649;-53
2022/08/17 05:00:41;;;;;;;6.68;6.28;;;;;;;19.10;72.78;97955.19;4093285;28;20251;-54
2022/08/17 05:02:48;;;;;;;5.85;5.53;;;;;;;19.18;72.75;97959.16;4110114;28;20211;-53
2022/08/17 05:04:51;;;;;;;6.10;5.70;;;;;;;19.23;72.79;97964.56;4125376;28;20660;-53
2022/08/17 05:06:55;;;;;;;5.60;5.20;;;;;;;19.13;73.18;97973.16;4109739;28;20234;-53
2022/08/17 05:08:58;;;;;;;6.22;5.82;;;;;;;19.20;73.00;97974.38;4110081;28;20214;-54
2022/08/17 05:10:59;;;;;;;6.97;6.38;;;;;;;19.17;72.97;97974.97;4109083;28;20685;-53
2022/08/17 05:13:05;;;;;;;7.18;6.72;;;;;;;18.92;73.87;97977.59;4109490;28;20207;-53
2022/08/17 05:15:15;;;;;;;6.75;6.25;;;;;;;18.85;73.96;97974.47;4110693;28;20218;-53
2022/08/17 05:17:16;;;;;;;7.03;6.53;;;;;;;18.78;74.44;97979.63;4108613;28;20234;-53
2022/08/17 05:19:18;;;;;;;6.50;5.90;;;;;;;18.87;73.88;97974.97;4112893;28;20207;-53
2022/08/17 05:21:21;;;;;;;8.02;7.28;;;;;;;18.80;74.44;97982.91;4108477;28;20277;-53
2022/08/17 05:23:25;;;;;;;7.65;7.05;;;;;;;18.76;74.69;97979.13;4111350;28;20235;-54
2022/08/17 05:25:43;;;;;;;7.60;7.05;;;;;;;18.87;74.44;97977.72;4108033;28;20211;-53
2022/08/17 05:27:48;;;;;;;7.75;7.15;;;;;;;18.85;74.63;97977.25;4110978;28;20314;-53
2022/08/17 05:29:51;;;;;;;7.10;6.60;;;;;;;18.97;74.09;97978.28;4115051;28;20218;-53
2022/08/17 05:31:53;;;;;;;8.35;7.72;;;;;;;19.08;73.75;97970.50;4110256;28;20218;-53
2022/08/17 05:33:54;;;;;;;7.15;6.65;;;;;;;19.19;73.86;97963.56;4106934;28;20207;-53
2022/08/17 05:35:58;;;;;;;7.47;6.88;;;;;;;19.29;73.34;97950.25;4125910;28;20258;-53
2022/08/17 05:38:00;;;;;;;6.95;6.47;;;;;;;19.39;73.06;97943.59;4106333;28;20214;-53
2022/08/17 05:40:02;;;;;;;7.00;6.53;;;;;;;19.46;74.23;97932.88;4110370;28;20214;-53
2022/08/17 05:42:05;;;;;;;7.60;6.88;;;;;;;19.57;73.31;97925.88;4105507;28;20297;-53
2022/08/17 05:44:06;;;;;;;7.28;6.80;;;;;;;19.64;74.41;97927.03;4104997;28;20263;-53
2022/08/17 05:46:30;;;;;;;7.13;6.05;;;;;;;19.70;74.31;97919.34;4114977;28;20619;-53
2022/08/17 05:48:56;;;;;;;6.40;5.97;;;;;;;19.76;74.45;97915.28;4125370;28;20210;-53
2022/08/17 05:51:04;;;;;;;8.27;5.95;;;;;;;19.79;74.45;97931.31;4098408;28;20207;-53
2022/08/17 05:53:40;;;;;;;7.05;6.55;;;;;;;19.69;75.21;97939.94;4111090;28;20207;-53
2022/08/17 05:56:06;;;;;;;9.38;5.22;;;;;;;19.74;74.67;97946.19;4122569;28;20225;-54
2022/08/17 05:58:41;;;;;;;6.53;6.03;;;;;;;19.68;75.02;97954.97;4108201;28;20573;-53
2022/08/17 06:00:49;;;;;;;8.40;7.63;;;;;;;19.74;74.89;97957.28;4108505;28;20297;-53
2022/08/17 06:03:10;;;;;;;6.25;5.85;;;;;;;19.76;74.97;97976.38;4110625;28;20205;-53
2022/08/17 06:05:36;;;;;;;6.40;6.00;;;;;;;19.80;74.92;97977.38;4098856;28;20227;-53
2022/08/17 06:08:08;;;;;;;6.72;6.32;;;;;;;19.62;75.99;97978.47;4123557;28;20304;-54
2022/08/17 06:10:52;;;;;;;6.72;5.85;;;;;;;19.61;76.32;97971.28;4123649;28;20206;-54
2022/08/17 06:13:15;;;;;;;7.28;6.68;;;;;;;19.69;75.49;97981.59;4092793;28;20267;-53
2022/08/17 06:15:43;;;;;;;11.02;6.97;;;;;;;19.51;76.39;97985.47;4125173;28;20261;-53
2022/08/17 06:17:45;;;;;;;6.72;6.22;;;;;;;19.41;76.90;97980.19;4108330;28;20202;-53
2022/08/17 06:19:59;;;;;;;7.40;6.80;;;;;;;19.48;76.39;97980.53;4094601;28;20200;-54
2022/08/17 06:22:02;;;;;;;7.15;6.65;;;;;;;19.45;77.00;97992.28;4106728;28;20642;-53
2022/08/17 06:24:30;;;;;;;6.95;6.20;;;;;;;19.56;76.17;97977.78;4110776;28;20230;-53
2022/08/17 06:26:36;;;;;;;14.65;7.00;;;;;;;19.64;75.91;97978.97;4100474;28;20302;-53
2022/08/17 06:29:11;;;;;;;8.82;8.13;;;;;;;19.71;76.26;97979.34;4108820;28;20285;-54
2022/08/17 06:31:28;;;;;;;11.20;6.25;;;;;;;19.77;76.45;97978.03;4102794;28;20214;-54
2022/08/17 06:33:33;;;;;;;8.00;7.25;;;;;;;19.81;75.80;97990.97;4103795;28;20301;-53
2022/08/17 06:35:44;;;;;;;11.15;7.13;;;;;;;19.85;76.34;97980.03;4087636;28;20211;-53
2022/08/17 06:38:08;;;;;;;6.28;5.78;;;;;;;19.88;76.25;97979.38;4104103;28;20215;-53
2022/08/17 06:40:44;;;;;;;10.25;7.20;;;;;;;19.91;76.71;97981.50;4096221;28;20233;-53
2022/08/17 06:42:52;;;;;;;7.18;6.35;;;;;;;19.91;77.47;97976.75;4105128;28;20299;-54
2022/08/17 06:45:30;;;;;;;8.32;6.38;;;;;;;19.94;76.85;97980.84;4122530;28;21048;-54
2022/08/17 06:47:50;;;;;;;7.53;7.03;;;;;;;20.00;76.97;97976.78;4108974;28;20285;-53
2022/08/17 06:50:19;;;;;;;7.05;6.40;;;;;;;20.00;76.38;97987.91;4122054;28;20254;-54
2022/08/17 06:52:33;;;;;;;7.70;6.15;;;;;;;20.01;76.05;97984.81;4112176;28;20207;-54
2022/08/17 06:55:14;;;;;;;7.28;6.78;;;;;;;20.04;76.13;97995.25;4121234;28;20257;-54
2022/08/17 06:57:19;;;;;;;7.50;6.40;;;;;;;19.98;75.76;98006.84;4105308;28;20230;-54
2022/08/17 06:59:36;;;;;;;8.05;7.47;;;;;;;20.04;75.20;98009.16;4105821;28;20211;-54
2022/08/17 07:02:03;;;;;;;7.93;7.43;;;;;;;20.15;74.96;98006.91;4092581;28;20218;-54
2022/08/17 07:04:20;;;;;;;7.38;6.88;;;;;;;19.92;75.18;98010.91;4107705;28;20280;-55
2022/08/17 07:06:33;;;;;;;7.60;7.10;;;;;;;19.78;75.78;98010.22;4121639;28;20226;-54
2022/08/17 07:09:24;;;;;;;8.88;7.97;;;;;;;20.01;75.02;98003.41;4111772;28;20206;-54
2022/08/17 07:11:33;;;;;;;8.20;7.45;;;;;;;19.93;75.72;98007.81;4097775;28;20214;-53
2022/08/17 07:13:51;;;;;;;8.80;7.50;;;;;;;20.04;75.46;97986.13;4107033;28;20580;-54
2022/08/17 07:15:58;;;;;;;7.13;6.55;;;;;;;20.13;75.78;97998.91;4123959;28;20213;-54
2022/08/17 07:18:04;;;;;;;8.30;7.68;;;;;;;20.25;75.02;98001.06;4140049;23;20237;-64
2022/08/17 07:20:10;;;;;;;7.20;6.70;;;;;;;20.36;75.05;98005.13;4124845;28;20301;-64
2022/08/17 07:22:33;;;;;;;7.95;7.43;;;;;;;20.42;73.99;98006.63;4124902;28;20206;-64
2022/08/17 07:25:03;;;;;;;7.78;7.07;;;;;;;20.38;74.07;98005.66;4127095;28;20229;-63
2022/08/17 07:27:17;;;;;;;7.60;7.03;;;;;;;20.37;74.51;97998.47;4125688;28;20233;-63
2022/08/17 07:29:18;;;;;;;8.27;7.45;;;;;;;20.48;74.19;98008.94;4125510;28;20217;-63
2022/08/17 07:31:22;;;;;;;8.80;8.20;;;;;;;20.56;73.85;98002.53;4108581;28;20264;-62
2022/08/17 07:33:28;;;;;;;7.97;7.32;;;;;;;20.69;73.83;98001.56;4125963;28;20239;-64
2022/08/17 07:35:41;;;;;;;7.03;6.53;;;;;;;20.71;74.54;97998.47;4123766;28;20218;-64
2022/08/17 07:37:54;;;;;;;8.18;7.57;;;;;;;20.76;73.69;97999.09;4127945;28;20201;-64
2022/08/17 07:39:56;;;;;;;7.80;7.30;;;;;;;20.84;73.59;97997.47;4126097;28;20287;-64
2022/08/17 07:42:17;;;;;;;10.73;6.88;;;;;;;20.86;73.56;98009.09;4129057;28;20213;-64
2022/08/17 07:44:22;;;;;;;10.65;6.85;;;;;;;20.92;73.07;98010.59;4122110;28;20236;-64
2022/08/17 07:49:17;;;;;;;21.02;6.80;;;;;;;21.01;72.86;98006.66;4128640;28;20217;-64
2022/08/17 07:51:42;;;;;;;6.93;6.43;;;;;;;21.08;72.67;98020.03;4109521;28;20218;-64
2022/08/17 07:53:45;;;;;;;7.45;6.50;;;;;;;21.08;72.39;98006.97;4123502;28;20213;-64
2022/08/17 07:55:47;;;;;;;8.27;7.20;;;;;;;21.11;72.47;98011.06;4125112;28;20237;-64
2022/08/17 07:57:56;;;;;;;7.38;6.78;;;;;;;21.10;72.14;98012.19;4121965;28;20209;-64
2022/08/17 07:59:58;;;;;;;7.57;6.85;;;;;;;21.19;71.80;98004.66;4128798;28;20221;-64
2022/08/17 08:02:26;;;;;;;6.35;5.90;;;;;;;21.26;71.66;98004.94;4120798;28;20202;-64
2022/08/17 08:04:36;;;;;;;6.90;6.32;;;;;;;21.31;71.06;98004.78;4141296;28;20224;-64
2022/08/17 08:07:00;;;;;;;6.82;6.13;;;;;;;21.36;71.00;97999.00;4139095;28;20225;-63
2022/08/17 08:09:01;;;;;;;8.38;7.68;;;;;;;21.32;71.59;98009.19;4141962;28;20220;-64
2022/08/17 08:11:14;;;;;;;8.38;7.68;;;;;;;21.35;71.25;98014.09;4136672;28;20299;-63
2022/08/17 08:13:24;;;;;;;6.90;6.30;;;;;;;21.47;71.04;98030.94;4136431;28;20197;-63
2022/08/17 08:15:52;;;;;;;7.90;7.22;;;;;;;21.55;70.82;98041.22;4137012;28;20275;-63
2022/08/17 08:18:01;;;;;;;7.25;6.65;;;;;;;21.67;70.94;98038.59;4134729;28;20779;-64
2022/08/17 08:20:07;;;;;;;7.07;6.68;;;;;;;21.61;70.98;98039.88;4139707;28;20204;-63
2022/08/17 08:22:42;;;;;;;7.28;6.78;;;;;;;21.71;70.51;98050.72;4142719;28;20296;-64
2022/08/17 08:25:08;;;;;;;6.60;6.10;;;;;;;21.72;70.34;98057.91;4140929;28;20227;-63
2022/08/17 08:27:25;;;;;;;6.88;6.28;;;;;;;21.77;70.40;98061.34;4138624;28;20232;-64
2022/08/17 08:30:12;;;;;;;6.45;5.95;;;;;;;21.87;70.17;98054.56;4141608;28;20204;-63
2022/08/17 08:32:47;;;;;;;8.95;6.20;;;;;;;21.86;70.44;98064.91;4142153;28;20300;-63
2022/08/17 08:35:08;;;;;;;7.93;7.20;;;;;;;21.78;70.03;98073.31;4137543;28;20646;-64
2022/08/17 08:37:26;;;;;;;5.95;5.47;;;;;;;21.70;70.01;98065.81;4141360;28;20319;-64
2022/08/17 08:39:43;;;;;;;6.43;5.70;;;;;;;21.65;70.25;98069.53;4156768;28;20254;-64
2022/08/17 08:42:15;;;;;;;6.40;5.97;;;;;;;21.71;69.53;98064.66;4144541;28;20283;-64
2022/08/17 08:44:25;;;;;;;6.38;5.97;;;;;;;21.75;69.91;98073.94;4139553;28;20295;-63
2022/08/17 08:47:18;;;;;;;5.50;5.10;;;;;;;21.86;68.98;98080.81;4137869;28;20591;-63
2022/08/17 08:49:50;;;;;;;7.20;5.57;;;;;;;21.78;68.51;98084.44;4141170;28;20208;-63
2022/08/17 08:52:33;;;;;;;6.38;5.78;;;;;;;21.91;68.63;98100.13;4142912;28;20239;-63
2022/08/17 08:54:46;;;;;;;5.00;4.57;;;;;;;21.93;68.02;98100.63;4136319;28;20208;-63
2022/08/17 08:57:03;;;;;;;6.07;5.55;;;;;;;22.08;67.66;98108.41;4138513;28;20810;-63
2022/08/17 08:59:38;;;;;;;4.63;4.22;;;;;;;22.03;67.14;98097.47;4137978;28;20654;-64
2022/08/17 09:02:13;;;;;;;5.93;4.88;;;;;;;21.95;67.59;98112.25;4138765;28;20204;-63
2022/08/17 09:04:34;;;;;;;12.90;5.13;;;;;;;22.16;67.19;98104.75;4140002;28;20376;-63
2022/08/17 09:07:01;;;;;;;4.90;4.43;;;;;;;22.14;66.88;98104.28;4138836;28;20224;-64
2022/08/17 09:09:16;;;;;;;5.63;4.28;;;;;;;22.16;66.47;98096.41;4142185;28;20307;-63
2022/08/17 09:11:42;;;;;;;3.63;3.38;;;;;;;22.09;66.72;98093.31;4142275;28;20291;-64
2022/08/17 09:14:14;;;;;;;4.90;4.47;;;;;;;21.98;67.09;98084.50;4141937;28;20211;-64
2022/08/17 09:16:29;;;;;;;4.18;3.78;;;;;;;21.85;67.47;98081.97;4138604;28;20229;-64
2022/08/17 09:18:33;;;;;;;4.82;4.15;;;;;;;21.89;67.44;98082.91;4125281;28;20670;-64
2022/08/17 09:20:58;;;;;;;4.25;3.92;;;;;;;21.94;67.49;98088.31;4138662;28;20209;-64
2022/08/17 09:23:14;;;;;;;6.22;4.20;;;;;;;21.96;67.17;98091.56;4138043;28;20692;-64
2022/08/17 09:25:20;;;;;;;5.80;4.45;;;;;;;22.10;67.51;98095.00;4139644;28;20216;-64
2022/08/17 09:27:47;;;;;;;4.20;3.85;;;;;;;22.20;67.09;98098.22;4132291;28;20319;-64
2022/08/17 09:29:58;;;;;;;5.78;4.28;;;;;;;22.39;66.52;98097.78;4132544;28;20304;-64
2022/08/17 09:32:07;;;;;;;8.10;4.40;;;;;;;22.53;66.22;98101.16;4138834;28;20233;-64
2022/08/17 09:34:15;;;;;;;4.45;4.05;;;;;;;22.70;65.30;98106.66;4139829;28;20798;-64
2022/08/17 09:36:40;;;;;;;4.30;3.90;;;;;;;22.44;65.93;98114.38;4137554;28;20727;-64
2022/08/17 09:39:02;;;;;;;4.80;4.40;;;;;;;22.64;65.83;98099.63;4139150;28;20229;-64
2022/08/17 09:41:29;;;;;;;4.13;3.83;;;;;;;22.56;65.85;98094.94;4142021;28;20661;-64
2022/08/17 09:43:48;;;;;;;4.20;3.90;;;;;;;22.67;65.64;98096.16;4142202;28;20304;-64
2022/08/17 09:46:03;;;;;;;4.13;3.85;;;;;;;22.67;65.61;98098.94;4142166;28;20627;-64
2022/08/17 09:48:13;;;;;;;4.32;3.92;;;;;;;22.61;65.64;98091.94;4144351;28;20263;-64
2022/08/17 09:50:23;;;;;;;17.80;4.75;;;;;;;22.83;65.59;98083.25;4140746;28;20201;-64
2022/08/17 09:52:44;;;;;;;3.72;3.42;;;;;;;22.81;65.64;98075.22;4143475;28;20288;-64
2022/08/17 09:54:47;;;;;;;4.47;4.07;;;;;;;22.96;65.68;98073.78;4143630;28;20205;-64
2022/08/17 09:57:11;;;;;;;3.65;3.40;;;;;;;23.27;64.85;98071.41;4143490;28;20264;-64
2022/08/17 09:59:49;;;;;;;4.70;4.30;;;;;;;23.65;63.51;98066.41;4140627;28;20204;-64
2022/08/17 10:01:55;;;;;;;4.30;4.00;;;;;;;24.25;62.68;98070.94;4143761;28;20204;-64
2022/08/17 10:04:03;;;;;;;4.13;3.80;;;;;;;24.46;60.86;98079.22;4145623;28;20247;-64
2022/08/17 10:06:07;;;;;;;4.15;3.75;;;;;;;24.03;61.46;98085.38;4145770;28;20311;-65
2022/08/17 10:08:36;;;;;;;3.20;3.00;;;;;;;24.49;60.54;98084.94;4141962;28;20211;-65
2022/08/17 10:10:58;;;;;;;6.28;4.07;;;;;;;24.83;59.61;98092.84;4135938;28;20351;-64
2022/08/17 10:13:17;;;;;;;4.00;3.70;;;;;;;25.29;59.04;98095.09;4137736;28;20205;-64
2022/08/17 10:15:25;;;;;;;3.33;3.13;;;;;;;25.65;58.38;98092.13;4142383;28;20231;-64
2022/08/17 10:17:46;;;;;;;3.50;3.22;;;;;;;25.89;57.24;98088.41;4138846;28;20324;-64
2022/08/17 10:19:51;;;;;;;4.63;4.22;;;;;;;26.06;56.08;98091.66;4142140;28;20239;-64
2022/08/17 10:27:23;;;;;;;3.90;3.05;;;;;;;26.47;54.88;98088.31;4139461;28;20601;-64
2022/08/17 10:29:34;;;;;;;3.38;2.63;;;;;;;26.75;54.02;98091.03;4120950;28;20209;-64
2022/08/17 10:32:08;;;;;;;2.70;2.50;;;;;;;26.91;53.33;98095.44;4142018;28;20235;-64
2022/08/17 10:34:24;;;;;;;3.20;2.90;;;;;;;26.64;53.85;98096.41;4155690;28;20208;-64
2022/08/17 10:36:44;;;;;;;3.33;3.13;;;;;;;27.09;53.01;98107.06;4139858;28;20227;-64